createdAt,value
2022-07-25T00:00:02.979Z,35.80
2022-07-25T00:02:33.880Z,35.80
2022-07-25T00:05:05.377Z,35.80
2022-07-25T00:07:35.805Z,35.60
2022-07-25T00:10:08.160Z,35.60
2022-07-25T00:12:38.580Z,35.70
2022-07-25T00:15:09.428Z,35.60
2022-07-25T00:18:05.157Z,35.70
2022-07-25T00:20:39.751Z,35.50
2022-07-25T00:23:09.781Z,35.30
2022-07-25T00:25:45.610Z,35.40
2022-07-25T00:28:18.317Z,35.40
2022-07-25T00:30:52.378Z,35.30
2022-07-25T00:33:25.466Z,35.30
2022-07-25T00:35:56.615Z,35.10
2022-07-25T00:38:29.692Z,35.00
2022-07-25T00:41:00.533Z,35.00
2022-07-25T00:43:35.237Z,35.00
2022-07-25T00:46:05.804Z,35.00
2022-07-25T00:48:40.912Z,34.90
2022-07-25T00:51:15.959Z,34.90
2022-07-25T00:53:48.027Z,34.90
2022-07-25T00:56:19.331Z,34.80
2022-07-25T00:58:49.347Z,34.80
2022-07-25T01:01:19.142Z,34.70
2022-07-25T01:03:49.759Z,34.60
2022-07-25T01:06:21.608Z,34.40
2022-07-25T01:08:56.491Z,34.50
2022-07-25T01:11:26.896Z,34.50
2022-07-25T01:13:58.062Z,34.50
2022-07-25T01:16:29.156Z,34.40
2022-07-25T01:19:03.871Z,34.30
2022-07-25T01:21:34.615Z,34.20
2022-07-25T01:24:09.629Z,34.20
2022-07-25T01:26:40.259Z,34.10
2022-07-25T01:29:12.379Z,34.00
2022-07-25T01:31:43.250Z,33.90
2022-07-25T01:34:15.104Z,33.80
2022-07-25T01:36:49.865Z,33.80
2022-07-25T01:39:20.919Z,33.80
2022-07-25T01:41:51.362Z,33.80
2022-07-25T01:44:27.547Z,33.80
2022-07-25T01:46:58.774Z,33.70
2022-07-25T01:49:37.478Z,33.70
2022-07-25T01:52:09.048Z,33.60
2022-07-25T01:54:39.949Z,33.60
2022-07-25T01:57:12.676Z,33.60
2022-07-25T01:59:44.968Z,33.40
2022-07-25T02:02:17.460Z,33.40
2022-07-25T02:04:46.592Z,33.40
2022-07-25T02:07:19.329Z,33.30
2022-07-25T02:09:56.570Z,33.20
2022-07-25T02:12:27.979Z,33.20
2022-07-25T02:14:57.464Z,33.20
2022-07-25T02:17:29.171Z,33.10
2022-07-25T02:20:00.168Z,33.10
2022-07-25T02:22:29.594Z,33.00
2022-07-25T02:25:00.421Z,33.00
2022-07-25T02:27:31.035Z,32.90
2022-07-25T02:30:04.452Z,33.00
2022-07-25T02:32:35.499Z,33.00
2022-07-25T02:35:12.933Z,33.00
2022-07-25T02:37:44.368Z,32.90
2022-07-25T02:40:16.887Z,32.80
2022-07-25T02:42:47.833Z,32.80
2022-07-25T02:45:18.591Z,32.70
2022-07-25T02:47:48.677Z,32.70
2022-07-25T02:50:20.495Z,32.60
2022-07-25T02:52:51.656Z,32.60
2022-07-25T02:55:22.447Z,32.50
2022-07-25T02:57:52.287Z,32.50
2022-07-25T03:00:22.958Z,32.40
2022-07-25T03:02:53.333Z,32.30
2022-07-25T03:05:22.854Z,32.30
2022-07-25T03:07:55.787Z,32.30
2022-07-25T03:10:27.031Z,32.20
2022-07-25T03:12:58.728Z,32.10
2022-07-25T03:15:32.081Z,32.00
2022-07-25T03:18:03.956Z,32.00
2022-07-25T03:20:36.189Z,31.90
2022-07-25T03:23:06.430Z,31.90
2022-07-25T03:25:37.422Z,31.80
2022-07-25T03:28:06.809Z,31.80
2022-07-25T03:30:36.612Z,31.80
2022-07-25T03:33:07.345Z,31.70
2022-07-25T03:35:41.246Z,31.60
2022-07-25T03:38:11.823Z,31.60
2022-07-25T03:40:41.505Z,31.50
2022-07-25T03:43:14.528Z,31.40
2022-07-25T03:45:48.637Z,31.40
2022-07-25T03:48:19.143Z,31.40
2022-07-25T03:50:49.130Z,31.40
2022-07-25T03:53:21.648Z,31.40
2022-07-25T03:55:52.926Z,31.30
2022-07-25T03:58:23.741Z,31.10
2022-07-25T04:00:57.855Z,31.10
2022-07-25T04:03:33.873Z,31.00
2022-07-25T04:06:12.236Z,31.00
2022-07-25T04:08:44.195Z,31.00
2022-07-25T04:11:15.179Z,30.90
2022-07-25T04:13:46.508Z,30.90
2022-07-25T04:16:22.440Z,30.80
2022-07-25T04:18:55.469Z,30.80
2022-07-25T04:21:30.621Z,30.80
2022-07-25T04:24:01.925Z,30.60
2022-07-25T04:26:31.696Z,30.60
2022-07-25T04:29:04.849Z,30.60
2022-07-25T04:31:37.985Z,30.50
2022-07-25T04:34:10.486Z,30.50
2022-07-25T04:36:40.518Z,30.50
2022-07-25T04:39:14.389Z,30.30
2022-07-25T04:41:52.343Z,30.30
2022-07-25T04:44:21.706Z,30.20
2022-07-25T04:46:50.983Z,30.20
2022-07-25T04:49:21.359Z,30.20
2022-07-25T04:51:52.558Z,30.20
2022-07-25T04:54:22.973Z,30.20
2022-07-25T04:56:52.729Z,30.10
2022-07-25T04:59:24.687Z,30.00
2022-07-25T05:01:58.147Z,30.00
2022-07-25T05:04:34.058Z,29.90
2022-07-25T05:07:05.114Z,29.80
2022-07-25T05:09:38.399Z,29.80
2022-07-25T05:12:08.554Z,29.70
2022-07-25T05:14:42.047Z,29.50
2022-07-25T05:17:12.426Z,29.50
2022-07-25T05:19:43.369Z,29.40
2022-07-25T05:22:18.548Z,29.40
2022-07-25T05:24:51.275Z,29.40
2022-07-25T05:27:24.569Z,29.40
2022-07-25T05:29:58.035Z,29.40
2022-07-25T05:32:31.311Z,29.10
2022-07-25T05:35:04.024Z,29.10
2022-07-25T05:37:39.350Z,29.30
2022-07-25T05:40:15.711Z,29.10
2022-07-25T05:42:46.338Z,29.10
2022-07-25T05:45:16.653Z,29.00
2022-07-25T05:47:54.945Z,29.00
2022-07-25T05:50:30.738Z,29.00
2022-07-25T05:53:05.768Z,28.90
2022-07-25T05:55:34.982Z,28.80
2022-07-25T05:58:14.242Z,28.90
2022-07-25T06:00:43.701Z,28.80
2022-07-25T06:03:14.133Z,28.60
2022-07-25T06:05:44.478Z,28.80
2022-07-25T06:08:21.320Z,28.90
2022-07-25T06:10:56.149Z,28.70
2022-07-25T06:13:29.487Z,28.60
2022-07-25T06:15:59.848Z,28.50
2022-07-25T06:18:34.363Z,28.40
2022-07-25T06:21:08.081Z,28.50
2022-07-25T06:23:38.092Z,28.40
2022-07-25T06:26:14.290Z,28.50
2022-07-25T06:28:45.250Z,28.30
2022-07-25T06:31:16.090Z,28.30
2022-07-25T06:33:49.280Z,28.30
2022-07-25T06:36:19.084Z,28.30
2022-07-25T06:38:51.556Z,28.20
2022-07-25T06:41:25.360Z,28.20
2022-07-25T06:43:55.942Z,28.20
2022-07-25T06:46:27.530Z,28.10
2022-07-25T06:48:58.816Z,28.00
2022-07-25T06:51:30.047Z,28.00
2022-07-25T06:54:03.390Z,27.90
2022-07-25T06:56:36.026Z,27.90
2022-07-25T06:59:05.956Z,27.80
2022-07-25T07:01:39.464Z,27.80
2022-07-25T07:04:10.382Z,27.80
2022-07-25T07:06:45.170Z,27.80
2022-07-25T07:09:16.312Z,27.80
2022-07-25T07:11:46.792Z,27.80
2022-07-25T07:14:18.048Z,27.90
2022-07-25T07:16:48.783Z,27.80
2022-07-25T07:19:20.428Z,27.70
2022-07-25T07:21:52.879Z,27.50
2022-07-25T07:24:24.841Z,27.50
2022-07-25T07:26:56.201Z,27.40
2022-07-25T07:29:31.269Z,27.40
2022-07-25T07:32:02.476Z,27.50
2022-07-25T07:34:32.122Z,27.50
2022-07-25T07:37:05.019Z,27.40
2022-07-25T07:39:34.660Z,27.40
2022-07-25T07:42:04.804Z,27.40
2022-07-25T07:44:34.751Z,27.50
2022-07-25T07:47:05.692Z,27.30
2022-07-25T07:49:50.026Z,27.40
2022-07-25T07:52:23.751Z,27.30
2022-07-25T07:55:11.296Z,27.30
2022-07-25T07:57:46.638Z,27.20
2022-07-25T08:00:17.733Z,27.20
2022-07-25T08:02:55.446Z,27.20
2022-07-25T08:05:32.763Z,27.10
2022-07-25T08:08:04.463Z,27.20
2022-07-25T08:10:37.423Z,27.20
2022-07-25T08:13:20.366Z,27.10
2022-07-25T08:15:53.575Z,27.00
2022-07-25T08:18:26.669Z,27.00
2022-07-25T08:20:58.662Z,27.00
2022-07-25T08:23:34.282Z,26.90
2022-07-25T08:26:05.049Z,27.00
2022-07-25T08:28:41.502Z,27.10
2022-07-25T08:31:11.771Z,27.00
2022-07-25T08:33:42.812Z,26.90
2022-07-25T08:36:17.456Z,26.80
2022-07-25T08:38:50.648Z,26.90
2022-07-25T08:41:20.541Z,26.90
2022-07-25T08:43:55.986Z,26.80
2022-07-25T08:46:27.304Z,26.80
2022-07-25T08:49:00.847Z,26.70
2022-07-25T08:51:31.592Z,26.80
2022-07-25T08:54:03.958Z,26.70
2022-07-25T08:56:39.852Z,26.70
2022-07-25T08:59:11.457Z,26.70
2022-07-25T09:01:42.615Z,26.70
2022-07-25T09:04:13.375Z,26.70
2022-07-25T09:07:08.181Z,26.60
2022-07-25T09:09:40.572Z,26.70
2022-07-25T09:12:10.797Z,26.50
2022-07-25T09:14:49.605Z,26.50
2022-07-25T09:17:23.641Z,26.50
2022-07-25T09:20:00.886Z,26.50
2022-07-25T09:22:34.655Z,26.60
2022-07-25T09:25:11.856Z,26.50
2022-07-25T09:27:42.278Z,26.40
2022-07-25T09:30:19.849Z,26.40
2022-07-25T09:33:02.386Z,26.40
2022-07-25T09:35:34.683Z,26.40
2022-07-25T09:38:16.138Z,26.30
2022-07-25T09:41:03.085Z,26.30
2022-07-25T09:43:42.365Z,26.30
2022-07-25T09:46:14.510Z,26.40
2022-07-25T09:48:50.527Z,26.40
2022-07-25T09:51:20.819Z,26.40
2022-07-25T09:53:52.038Z,26.40
2022-07-25T09:56:24.656Z,26.30
2022-07-25T09:58:54.270Z,26.30
2022-07-25T10:01:30.899Z,26.20
2022-07-25T10:04:21.944Z,26.20
2022-07-25T10:07:10.527Z,26.30
2022-07-25T10:09:50.906Z,26.20
2022-07-25T10:12:25.063Z,26.20
2022-07-25T10:15:12.689Z,26.20
2022-07-25T10:17:44.178Z,26.20
2022-07-25T10:20:16.383Z,26.20
2022-07-25T10:22:57.337Z,26.20
2022-07-25T10:25:30.590Z,26.10
2022-07-25T10:28:10.689Z,26.10
2022-07-25T10:30:42.859Z,26.10
2022-07-25T10:33:21.120Z,26.10
2022-07-25T10:35:51.530Z,26.10
2022-07-25T10:38:43.712Z,26.20
2022-07-25T10:41:16.858Z,26.00
2022-07-25T10:43:48.882Z,25.90
2022-07-25T10:46:24.862Z,25.80
2022-07-25T10:49:11.818Z,25.80
2022-07-25T10:51:43.081Z,25.80
2022-07-25T10:54:19.083Z,25.90
2022-07-25T10:57:00.683Z,25.80
2022-07-25T10:59:40.814Z,25.80
2022-07-25T11:02:18.015Z,25.80
2022-07-25T11:05:04.558Z,25.80
2022-07-25T11:07:38.325Z,25.80
2022-07-25T11:10:09.817Z,25.70
2022-07-25T11:12:44.210Z,25.70
2022-07-25T11:15:17.192Z,25.70
2022-07-25T11:17:55.079Z,25.60
2022-07-25T11:20:24.244Z,25.60
2022-07-25T11:22:57.583Z,25.60
2022-07-25T11:25:26.904Z,25.70
2022-07-25T11:28:02.003Z,25.60
2022-07-25T11:30:32.622Z,25.70
2022-07-25T11:33:02.939Z,25.50
2022-07-25T11:35:36.682Z,25.60
2022-07-25T11:38:09.066Z,25.60
2022-07-25T11:40:46.154Z,25.50
2022-07-25T11:43:26.173Z,25.50
2022-07-25T11:46:04.509Z,25.50
2022-07-25T11:48:40.881Z,25.40
2022-07-25T11:51:21.817Z,25.40
2022-07-25T11:53:52.789Z,25.40
2022-07-25T11:56:42.089Z,25.40
2022-07-25T11:59:12.843Z,25.40
2022-07-25T12:01:46.329Z,25.40
2022-07-25T12:04:21.848Z,25.40
2022-07-25T12:06:53.273Z,25.40
2022-07-25T12:09:26.608Z,25.40
2022-07-25T12:12:07.362Z,25.40
2022-07-25T12:14:46.503Z,25.40
2022-07-25T12:17:16.585Z,25.40
2022-07-25T12:19:50.058Z,25.50
2022-07-25T12:22:23.445Z,25.50
2022-07-25T12:24:54.037Z,25.50
2022-07-25T12:27:26.440Z,25.60
2022-07-25T12:29:56.258Z,25.60
2022-07-25T12:32:26.610Z,25.60
2022-07-25T12:35:02.876Z,25.60
2022-07-25T12:37:35.502Z,25.70
2022-07-25T12:40:07.006Z,25.70
2022-07-25T12:42:39.836Z,25.70
2022-07-25T12:45:12.319Z,25.80
2022-07-25T12:47:44.972Z,25.80
2022-07-25T12:50:17.960Z,25.80
2022-07-25T12:52:48.793Z,25.80
2022-07-25T12:55:22.919Z,25.90
2022-07-25T12:57:54.549Z,25.90
2022-07-25T13:00:28.596Z,25.90
2022-07-25T13:03:01.411Z,26.00
2022-07-25T13:05:32.010Z,26.00
2022-07-25T13:08:02.460Z,26.10
2022-07-25T13:10:35.743Z,26.10
2022-07-25T13:13:06.929Z,26.20
2022-07-25T13:15:38.399Z,26.30
2022-07-25T13:18:08.795Z,26.30
2022-07-25T13:20:39.268Z,26.30
2022-07-25T13:23:11.272Z,26.30
2022-07-25T13:25:42.887Z,26.30
2022-07-25T13:28:14.065Z,26.30
2022-07-25T13:30:44.555Z,26.30
2022-07-25T13:33:14.879Z,26.40
2022-07-25T13:35:45.564Z,26.50
2022-07-25T13:38:16.750Z,26.70
2022-07-25T13:40:46.360Z,26.80
2022-07-25T13:43:16.463Z,26.90
2022-07-25T13:45:48.586Z,27.00
2022-07-25T13:48:30.379Z,27.00
2022-07-25T13:51:03.848Z,26.90
2022-07-25T13:53:36.328Z,26.90
2022-07-25T13:56:08.543Z,27.00
2022-07-25T13:58:38.837Z,27.10
2022-07-25T14:01:10.523Z,27.10
2022-07-25T14:03:43.518Z,27.10
2022-07-25T14:06:12.913Z,27.20
2022-07-25T14:08:44.668Z,27.30
2022-07-25T14:11:17.814Z,27.40
2022-07-25T14:13:50.209Z,27.40
2022-07-25T14:16:23.091Z,27.50
2022-07-25T14:18:59.075Z,27.50
2022-07-25T14:21:30.201Z,27.60
2022-07-25T14:24:00.851Z,27.60
2022-07-25T14:26:33.977Z,27.70
2022-07-25T14:29:04.632Z,27.80
2022-07-25T14:31:36.712Z,27.90
2022-07-25T14:34:06.219Z,27.90
2022-07-25T14:36:41.237Z,28.00
2022-07-25T14:39:10.770Z,28.10
2022-07-25T14:41:44.140Z,28.10
2022-07-25T14:44:16.316Z,28.20
2022-07-25T14:46:46.326Z,28.20
2022-07-25T14:49:17.696Z,28.30
2022-07-25T14:51:50.379Z,28.40
2022-07-25T14:54:20.330Z,28.50
2022-07-25T14:56:50.976Z,28.50
2022-07-25T14:59:22.492Z,28.60
2022-07-25T15:01:52.690Z,28.50
2022-07-25T15:04:23.989Z,28.60
2022-07-25T15:07:05.831Z,28.70
2022-07-25T15:09:35.813Z,28.80
2022-07-25T15:12:07.142Z,28.80
2022-07-25T15:14:36.665Z,29.10
2022-07-25T15:17:09.054Z,29.20
2022-07-25T15:19:38.795Z,29.10
2022-07-25T15:22:08.519Z,29.10
2022-07-25T15:25:16.818Z,29.10
2022-07-25T15:27:31.063Z,29.30
2022-07-25T15:30:03.894Z,29.40
2022-07-25T15:32:36.998Z,29.30
2022-07-25T15:35:07.792Z,29.40
2022-07-25T15:37:38.672Z,29.40
2022-07-25T15:40:11.422Z,29.60
2022-07-25T15:42:43.736Z,29.60
2022-07-25T15:45:32.366Z,29.60
2022-07-25T15:48:11.529Z,29.80
2022-07-25T15:50:46.009Z,29.80
2022-07-25T15:53:20.867Z,29.90
2022-07-25T15:55:53.640Z,30.00
2022-07-25T15:58:24.943Z,30.00
2022-07-25T16:00:56.940Z,30.00
2022-07-25T16:03:27.579Z,30.10
2022-07-25T16:05:58.109Z,30.20
2022-07-25T16:08:33.665Z,30.20
2022-07-25T16:11:04.055Z,30.30
2022-07-25T16:13:35.143Z,30.30
2022-07-25T16:16:06.220Z,30.30
2022-07-25T16:18:36.263Z,30.30
2022-07-25T16:21:08.430Z,30.40
2022-07-25T16:23:45.137Z,30.60
2022-07-25T16:26:16.939Z,30.60
2022-07-25T16:31:59.759Z,30.70
2022-07-25T16:34:31.117Z,30.90
2022-07-25T16:37:05.315Z,30.90
2022-07-25T16:39:35.824Z,30.80
2022-07-25T16:42:06.336Z,31.00
2022-07-25T16:44:40.448Z,31.10
2022-07-25T16:47:11.365Z,31.20
2022-07-25T16:49:42.685Z,31.20
2022-07-25T16:52:14.280Z,31.20
2022-07-25T16:54:47.346Z,31.20
2022-07-25T16:57:25.088Z,31.30
2022-07-25T16:59:57.044Z,31.40
2022-07-25T17:02:29.722Z,31.50
2022-07-25T17:05:01.918Z,31.40
2022-07-25T17:07:32.482Z,31.60
2022-07-25T17:10:02.732Z,31.70
2022-07-25T17:12:35.820Z,31.70
2022-07-25T17:15:06.861Z,31.70
2022-07-25T17:17:39.124Z,31.70
2022-07-25T17:20:10.829Z,31.90
2022-07-25T17:22:42.402Z,31.90
2022-07-25T17:25:14.877Z,32.00
2022-07-25T17:27:46.135Z,32.00
2022-07-25T17:30:16.124Z,32.10
2022-07-25T17:32:49.507Z,32.20
2022-07-25T17:35:19.146Z,32.40
2022-07-25T17:37:49.446Z,32.30
2022-07-25T17:40:22.828Z,32.40
2022-07-25T17:42:52.938Z,32.20
2022-07-25T17:45:22.978Z,32.40
2022-07-25T17:47:53.583Z,32.50
2022-07-25T17:50:31.078Z,32.60
2022-07-25T17:53:01.282Z,32.70
2022-07-25T17:55:38.486Z,32.70
2022-07-25T17:58:09.653Z,32.60
2022-07-25T18:00:42.536Z,32.70
2022-07-25T18:03:13.948Z,32.60
2022-07-25T18:05:46.181Z,32.70
2022-07-25T18:08:21.259Z,32.80
2022-07-25T18:10:54.029Z,33.00
2022-07-25T18:13:25.338Z,33.10
2022-07-25T18:15:59.962Z,33.10
2022-07-25T18:18:35.190Z,33.10
2022-07-25T18:21:05.748Z,33.30
2022-07-25T18:23:37.080Z,33.20
2022-07-25T18:26:10.316Z,33.30
2022-07-25T18:28:42.396Z,33.40
2022-07-25T18:31:16.485Z,33.50
2022-07-25T18:33:54.357Z,33.40
2022-07-25T18:36:28.316Z,33.60
2022-07-25T18:39:00.912Z,33.60
2022-07-25T18:41:31.166Z,33.60
2022-07-25T18:44:01.503Z,33.60
2022-07-25T18:46:34.639Z,33.70
2022-07-25T18:49:06.543Z,33.90
2022-07-25T18:51:38.670Z,34.00
2022-07-25T18:54:10.213Z,33.60
2022-07-25T18:56:41.269Z,33.90
2022-07-25T18:59:13.391Z,33.90
2022-07-25T19:01:43.729Z,34.00
2022-07-25T19:04:14.576Z,34.00
2022-07-25T19:06:46.756Z,34.00
2022-07-25T19:09:17.341Z,34.00
2022-07-25T19:11:49.250Z,33.90
2022-07-25T19:14:20.691Z,34.00
2022-07-25T19:16:55.679Z,34.00
2022-07-25T19:19:27.937Z,34.00
2022-07-25T19:21:59.815Z,34.20
2022-07-25T19:24:32.599Z,34.30
2022-07-25T19:27:03.495Z,34.30
2022-07-25T19:29:36.105Z,34.30
2022-07-25T19:32:13.007Z,34.30
2022-07-25T19:34:46.749Z,34.00
2022-07-25T19:37:19.912Z,34.50
2022-07-25T19:39:52.281Z,34.60
2022-07-25T19:42:23.930Z,34.60
2022-07-25T19:44:59.237Z,34.80
2022-07-25T19:47:29.554Z,34.50
2022-07-25T19:49:59.431Z,34.50
2022-07-25T19:52:30.129Z,34.40
2022-07-25T19:55:03.612Z,34.70
2022-07-25T19:57:36.109Z,34.80
2022-07-25T20:00:11.344Z,34.80
2022-07-25T20:02:43.338Z,34.80
2022-07-25T20:05:18.641Z,34.60
2022-07-25T20:07:48.126Z,35.00
2022-07-25T20:10:21.774Z,35.20
2022-07-25T20:12:52.558Z,35.10
2022-07-25T20:15:23.609Z,35.10
2022-07-25T20:17:54.767Z,35.10
2022-07-25T20:20:26.107Z,35.00
2022-07-25T20:22:57.427Z,35.20
2022-07-25T20:25:31.450Z,35.00
2022-07-25T20:28:07.022Z,35.20
2022-07-25T20:30:41.447Z,35.10
2022-07-25T20:33:13.266Z,35.20
2022-07-25T20:35:44.656Z,35.00
2022-07-25T20:38:21.804Z,35.20
2022-07-25T20:40:57.864Z,35.30
2022-07-25T20:43:34.413Z,35.20
2022-07-25T20:46:09.661Z,35.30
2022-07-25T20:48:39.384Z,35.50
2022-07-25T20:51:12.357Z,35.50
2022-07-25T20:53:44.234Z,35.60
2022-07-25T20:56:30.839Z,35.50
2022-07-25T20:59:08.828Z,35.50
2022-07-25T21:01:42.782Z,35.60
2022-07-25T21:04:12.954Z,35.60
2022-07-25T21:06:45.666Z,35.60
2022-07-25T21:09:16.591Z,35.60
2022-07-25T21:11:49.105Z,35.60
2022-07-25T21:14:19.321Z,35.80
2022-07-25T21:16:52.650Z,35.60
2022-07-25T21:19:22.506Z,35.40
2022-07-25T21:21:53.257Z,35.50
2022-07-25T21:24:23.692Z,35.80
2022-07-25T21:26:57.690Z,35.70
2022-07-25T21:29:30.402Z,35.90
2022-07-25T21:32:04.877Z,36.00
2022-07-25T21:34:36.782Z,35.80
2022-07-25T21:37:11.134Z,36.10
2022-07-25T21:39:45.043Z,36.10
2022-07-25T21:42:23.405Z,35.80
2022-07-25T21:44:54.845Z,36.00
2022-07-25T21:47:29.587Z,36.10
2022-07-25T21:50:24.201Z,36.30
2022-07-25T21:52:56.217Z,36.30
2022-07-25T21:55:28.188Z,36.30
2022-07-25T21:57:59.010Z,36.30
2022-07-25T22:00:33.281Z,36.20
2022-07-25T22:03:04.131Z,36.20
2022-07-25T22:05:37.850Z,36.30
2022-07-25T22:08:09.731Z,36.30
2022-07-25T22:10:46.726Z,36.40
2022-07-25T22:13:17.853Z,36.40
2022-07-25T22:15:47.955Z,36.40
2022-07-25T22:18:17.906Z,36.40
2022-07-25T22:20:49.313Z,36.20
2022-07-25T22:23:21.725Z,36.20
2022-07-25T22:25:54.346Z,36.30
2022-07-25T22:28:27.275Z,36.40
2022-07-25T22:30:58.522Z,36.40
2022-07-25T22:33:36.101Z,36.60
2022-07-25T22:36:06.688Z,37.10
2022-07-25T22:38:37.752Z,38.30
2022-07-25T22:41:08.902Z,37.30
2022-07-25T22:43:57.299Z,36.60
2022-07-25T22:46:33.903Z,36.60
2022-07-25T22:49:06.845Z,36.60
2022-07-25T22:51:39.328Z,36.50
2022-07-25T22:54:09.335Z,36.30
2022-07-25T22:56:55.735Z,36.30
2022-07-25T22:59:31.270Z,36.40
2022-07-25T23:02:03.435Z,36.30
2022-07-25T23:04:36.653Z,36.30
2022-07-25T23:07:08.666Z,36.30
2022-07-25T23:09:39.336Z,36.10
2022-07-25T23:12:10.499Z,36.30
2022-07-25T23:14:44.961Z,36.20
2022-07-25T23:17:19.541Z,36.20
2022-07-25T23:19:54.864Z,36.10
2022-07-25T23:22:30.311Z,36.00
2022-07-25T23:25:03.191Z,36.10
2022-07-25T23:27:35.024Z,36.10
2022-07-25T23:30:09.166Z,36.10
2022-07-25T23:32:39.309Z,36.20
2022-07-25T23:35:10.973Z,36.20
2022-07-25T23:37:46.698Z,36.20
2022-07-25T23:40:16.600Z,36.10
2022-07-25T23:42:50.204Z,36.20
2022-07-25T23:45:19.702Z,36.90
2022-07-25T23:47:51.949Z,37.80
2022-07-25T23:50:27.281Z,37.40
2022-07-25T23:53:03.192Z,36.60
2022-07-25T23:55:34.689Z,36.30
2022-07-25T23:58:07.326Z,36.10
